Terminal Aerodrome Forecast
Issued by NWS Shreveport, LA

Home | Current Version | Previous Version | Text Only | Print | Product List | Glossary On
Versions: 1 2 3 4 5 6 7 8 9 10 11 12 13 14 15 16 17 18 19 20 21 22 23 24 25 26
000
FTUS44 KSHV 271414 AAB
TAFLFK
TAF AMD
KLFK 271414Z 2714/2812 08010KT P6SM SCT010 BKN090
      TEMPO 2715/2718 08012G20KT OVC010
     FM271800 08010KT P6SM BKN015 BKN040
     FM280000 06002KT P6SM VCTS BKN007 OVC015CB
     FM280600 03003KT 4SM BR OVC007
     FM280900 34005KT 1 1/2SM BR OVC004=

USA.gov is the U.S. government's official web portal to all federal, state and local government web resources and services.